Terminal Aerodrome Forecast
Issued by NWS

Home | Current Version | Previous Version | Text Only | Print | Product List | Glossary On
Versions: 1 2 3 4 5 6 7 8 9 10 11 12 13 14 15 16 17 18 19
845
FTUS43 KJKL 270650 AAA
TAFSME
TAF AMD
KSME 270650Z 2707/2806 00000KT 4SM BR SKC
      TEMPO 2707/2711 00000KT 2SM BR SKC
     FM271300 VRB03KT P6SM SCT200=

USA.gov is the U.S. government's official web portal to all federal, state and local government web resources and services.